METAR Data
IDs: Format: Raw Decoded Include TAF

Data at: 2029 UTC 19 May 2019

PALG 191956Z AUTO VRB05KT 10SM BKN041 BKN049 OVC060 14/04 A2971 RMK AO2 SLP065 T01390044
PALG 191856Z AUTO 00000KT 10SM CLR 12/05 A2972 RMK AO2 SLP069 T01220050
PALG 191756Z AUTO 13003KT 10SM SCT110 11/06 A2973 RMK AO2 SLP074 T01060061 10106 20022 58005
PALG 191656Z AUTO 00000KT 10SM BKN110 08/06 A2974 RMK AO2 SLP077 T00830056
PALG 191556Z AUTO 00000KT 10SM OVC110 05/05 A2975 RMK AO2 SLP079 T00500050
PALG 191530Z AUTO 00000KT 10SM FEW002 BKN110 04/04 A2975 RMK AO2
PALG 191456Z AUTO 00000KT 10SM OVC095 03/03 A2975 RMK AO2 SLP079 T00330028 58005
PALG 191356Z AUTO 00000KT 8SM FEW100 02/02 A2976 RMK AO2 SLP081 T00220022 FZRANO
PALG 191256Z AUTO 10003KT 10SM OVC110 04/04 A2976 RMK AO2 SLP083 T00440044
PALG 191156Z AUTO 00000KT 10SM SCT085 OVC100 04/04 A2976 RMK AO2 SLP084 60001 70003 T00440039 10128 20039 56002
PALG 191056Z AUTO 00000KT 10SM OVC100 04/04 A2977 RMK AO2 SLP085 T00440039
PALG 190956Z AUTO 00000KT 10SM FEW100 06/04 A2976 RMK AO2 RAE04 SLP084 P0000 T00560044
PALG 190856Z AUTO 00000KT 10SM -RA FEW021 BKN095 OVC110 08/05 A2977 RMK AO2 SLP086 P0001 60001 T00780050 401561011 50006
PALG 190756Z AUTO 35003KT 10SM -RA FEW039 OVC060 08/05 A2977 RMK AO2 RAB54 SLP087 P0000 T00830050
PALG 190656Z AUTO VRB04KT 10SM CLR 09/05 A2976 RMK AO2 SLP083 T00890050
PALG 190556Z AUTO VRB03KT 10SM CLR 13/03 A2975 RMK AO2 SLP079 60002 T01280033 10156 20111 51001
PALG 190456Z AUTO 00000KT 10SM FEW046 BKN095 12/04 A2975 RMK AO2 SLP078 T01170039
PALG 190356Z AUTO 16003KT 10SM FEW050 SCT070 BKN090 11/04 A2976 RMK AO2 SLP081 T01110044
PALG 190256Z AUTO VRB05KT 10SM FEW050 14/02 A2975 RMK AO2 RAE16 SLP079 P0002 60002 T01390022 58005
PALG 190156Z AUTO 01006KT 10SM -RA FEW042 BKN055 OVC085 13/04 A2976 RMK AO2 RAB49 SLP081 P0000 T01280044
PALG 190056Z AUTO VRB04KT 10SM BKN060 13/03 A2976 RMK AO2 SLP083 T01330033
PALG 182356Z AUTO VRB05KT 8SM FEW041 BKN060 14/03 A2976 RMK AO2 SLP084 T01390033 10139 20044 58007
PALG 182256Z AUTO 25004KT 7SM FEW037 13/03 A2977 RMK AO2 SLP088 T01330033
PALG 182203Z AUTO 24005KT 10SM BKN030 11/04 A2978 RMK AO2
PALG 182156Z AUTO VRB05KT 8SM BKN028 12/04 A2978 RMK AO2 SLP090 T01220044
PALG 182142Z AUTO VRB03KT 10SM BKN028 12/04 A2978 RMK AO2
PALG 182056Z AUTO 00000KT 10SM SCT019 10/04 A2979 RMK AO2 SLP092 T01000039 53001
PALG 182046Z AUTO 12003KT 10SM BKN019 10/04 A2979 RMK AO2
PALG 182020Z AUTO 12003KT 10SM SCT015 10/04 A2979 RMK AO2
PALG 182008Z AUTO 00000KT 9SM BKN015 09/04 A2978 RMK AO2
PALG 181956Z AUTO 00000KT 10SM BKN013 09/04 A2978 RMK AO2 SLP091 T00890044
PALG 181918Z AUTO VRB03KT 10SM OVC011 07/04 A2979 RMK AO2
PALG 181856Z AUTO VRB04KT 10SM OVC009 07/04 A2978 RMK AO2 CIG 008V012 SLP091 T00670039
PALG 181829Z AUTO 24004KT 10SM OVC007 06/04 A2979 RMK AO2
PALG 181756Z AUTO 00000KT 10SM OVC005 04/03 A2978 RMK AO2 SLP091 T00440033 10044 21011 51006
PALG 181752Z AUTO 26003KT 10SM OVC005 04/03 A2978 RMK AO2
PALG 181656Z AUTO 00000KT 10SM OVC003 04/03 A2977 RMK AO2 SLP087 T00390033
PALG 181636Z AUTO 00000KT 6SM BR OVC003 04/03 A2977 RMK AO2
PALG 181621Z AUTO VRB03KT 2SM BR OVC003 03/03 A2977 RMK AO2
PALG 181613Z AUTO 00000KT 3/4SM BR OVC003 03/03 A2977 RMK AO2
PALG 181556Z AUTO 00000KT 1/4SM FG OVC003 03/03 A2976 RMK AO2 SLP084 T00330033
PALG 181503Z AUTO 00000KT 1/4SM FG OVC003 02/02 A2976 RMK AO2 FZRANO
PALG 181456Z AUTO 00000KT 1/2SM FG OVC003 02/01 A2976 RMK AO2 SLP082 T00170011 51016 FZRANO
PALG 181454Z AUTO 00000KT 1/2SM FG OVC003 01/01 A2976 RMK AO2 CIG 002V005 FZRANO
PALG 181452Z AUTO 00000KT 1SM BR OVC003 01/01 A2976 RMK AO2 CIG 002V006 FZRANO
PALG 181449Z AUTO 00000KT 2 1/2SM BR OVC003 01/01 A2976 RMK AO2 CIG 002V006 FZRANO
PALG 181436Z AUTO 00000KT 10SM OVC005 00/00 A2975 RMK AO2 CIG 003V007 FZRANO
PALG 181422Z AUTO 00000KT 9SM BKN007 M01/M01 A2975 RMK AO2 FZRANO
PALG 181407Z AUTO 00000KT 10SM FEW007 M01/M01 A2975 RMK AO2 FZRANO
PALG 181356Z AUTO 00000KT 10SM CLR M01/M01 A2975 RMK AO2 SLP078 T10111011 FZRANO
PALG 181256Z AUTO 00000KT 10SM CLR 00/00 A2973 RMK AO2 SLP072 T00000000 FZRANO
PALG 181156Z AUTO 00000KT 10SM CLR 03/02 A2971 RMK AO2 SLP066 70018 T00280022 10117 20022 51017
PALG 181056Z AUTO 00000KT 10SM OVC046 03/03 A2969 RMK AO2 SLP060 T00330028
PALG 180956Z AUTO 00000KT 10SM SCT055 02/02 A2968 RMK AO2 SLP055 T00220022 FZRANO
PALG 180856Z AUTO 00000KT 10SM CLR 04/04 A2966 RMK AO2 SLP049 T00440039 401330044 51022